Time;durP1;ratioP1;P1;durP2;ratioP2;P2;SDS_P1;SDS_P2;PMS_P1;PMS_P2;Temp;Humidity;BMP_temperature;BMP_pressure;BME280_temperature;BME280_humidity;BME280_pressure;Samples;Min_cycle;Max_cycle;Signal;HPM_P1;HPM_P2
2023/02/22 00:02:58;;;;;;;19.48;9.07;;;;;;;;;;6251084;23;19907;-81
2023/02/22 00:05:30;;;;;;;19.15;10.60;;;;;;;;;;6218517;23;20012;-81
2023/02/22 00:08:18;;;;;;;21.38;11.25;;;;;;;;;;6253138;23;20008;-81
2023/02/22 00:10:52;;;;;;;19.73;10.23;;;;;;;;;;6247660;22;20011;-81
2023/02/22 00:13:28;;;;;;;21.10;10.82;;;;;;;;;;6249043;22;20004;-80
2023/02/22 00:16:01;;;;;;;18.73;10.95;;;;;;;;;;6246019;23;20012;-81
2023/02/22 00:18:43;;;;;;;20.83;10.40;;;5.40;99.90;;;;;;6240670;22;20012;-81
2023/02/22 00:21:57;;;;;;;18.83;10.27;;;5.30;99.90;;;;;;6245373;23;20058;-81
2023/02/22 00:24:34;;;;;;;21.65;10.82;;;;;;;;;;6250030;22;20015;-82
2023/02/22 00:27:15;;;;;;;21.90;9.77;;;;;;;;;;6252259;22;20339;-81
2023/02/22 00:29:55;;;;;;;24.95;10.13;;;;;;;;;;6250908;23;20032;-81
2023/02/22 00:32:49;;;;;;;20.38;10.45;;;;;;;;;;6251121;23;20008;-80
2023/02/22 00:35:26;;;;;;;22.75;12.23;;;;;;;;;;6250439;22;20038;-80
2023/02/22 00:38:03;;;;;;;18.77;9.65;;;;;;;;;;6250207;23;20016;-80
2023/02/22 00:40:47;;;;;;;21.67;10.23;;;5.20;99.90;;;;;;6235015;23;20000;-81
2023/02/22 00:43:38;;;;;;;21.70;10.82;;;;;;;;;;6250022;23;20007;-81
2023/02/22 00:46:23;;;;;;;25.52;11.13;;;;;;;;;;6250765;23;20000;-80
2023/02/22 00:49:34;;;;;;;22.02;11.45;;;;;;;;;;6244642;23;20004;-81
2023/02/22 00:52:49;;;;;;;;;;;5.20;99.90;;;;;;6253526;23;20004;-80
2023/02/22 00:56:00;;;;;;;17.85;9.80;;;;;;;;;;6231682;22;19954;-81
2023/02/22 00:59:01;;;;;;;17.60;9.93;;;5.10;99.90;;;;;;6242072;22;20035;-81
2023/02/22 01:02:16;;;;;;;21.17;10.45;;;5.10;99.90;;;;;;6253840;22;20004;-81
2023/02/22 01:05:22;;;;;;;17.70;10.50;;;5.10;99.90;;;;;;6189566;23;20332;-81
2023/02/22 01:08:23;;;;;;;17.25;10.27;;;4.90;99.90;;;;;;6236314;22;20035;-82
2023/02/22 01:11:58;;;;;;;18.23;9.60;;;5.10;99.90;;;;;;6223619;23;20029;-81
2023/02/22 01:14:48;;;;;;;21.45;10.90;;;5.10;99.90;;;;;;6127789;23;20119;-81
2023/02/22 01:17:58;;;;;;;21.98;10.45;;;5.00;99.90;;;;;;6220437;23;20042;-81
2023/02/22 01:21:19;;;;;;;22.27;10.32;;;5.00;99.90;;;;;;6193833;23;20023;-80
2023/02/22 01:24:29;;;;;;;18.65;9.70;;;5.00;99.90;;;;;;6135624;23;20002;-81
2023/02/22 01:27:28;;;;;;;14.50;9.10;;;4.90;99.90;;;;;;6178655;23;20003;-81
2023/02/22 01:30:13;;;;;;;17.55;10.07;;;4.90;99.90;;;;;;6192676;23;20009;-81
2023/02/22 01:32:59;;;;;;;;;;;4.90;99.90;;;;;;6197563;23;20015;-81
2023/02/22 01:35:28;;;;;;;19.05;9.73;;;4.90;99.90;;;;;;6233296;22;19911;-82
2023/02/22 01:37:54;;;;;;;18.90;10.05;;;;;;;;;;6251514;23;20014;-81
2023/02/22 01:40:31;;;;;;;21.23;10.93;;;4.80;99.90;;;;;;6250919;23;20064;-80
2023/02/22 01:42:59;;;;;;;25.70;10.95;;;;;;;;;;6253127;23;19997;-82
2023/02/22 01:46:12;;;;;;;19.15;10.18;;;4.80;99.90;;;;;;6251490;22;20035;-81
2023/02/22 01:49:04;;;;;;;21.95;11.55;;;4.70;99.90;;;;;;6204505;23;20034;-81
2023/02/22 01:51:54;;;;;;;17.05;10.48;;;4.70;99.90;;;;;;6244911;23;20043;-81
2023/02/22 01:55:09;;;;;;;17.73;9.40;;;4.70;99.90;;;;;;6247380;22;20008;-81
2023/02/22 01:58:23;;;;;;;16.55;9.50;;;4.70;99.90;;;;;;6252502;23;20093;-80
2023/02/22 02:01:36;;;;;;;18.83;9.20;;;4.80;99.90;;;;;;6246244;22;20008;-81
2023/02/22 02:04:41;;;;;;;15.85;9.13;;;4.70;99.90;;;;;;6203711;22;20000;-81
2023/02/22 02:08:02;;;;;;;19.02;10.43;;;4.70;99.90;;;;;;6251042;23;20039;-81
2023/02/22 02:11:15;;;;;;;19.60;9.68;;;4.60;99.90;;;;;;6252862;23;20022;-81
2023/02/22 02:13:55;;;;;;;19.05;9.35;;;4.60;99.90;;;;;;6226019;22;20023;-81
2023/02/22 02:16:55;;;;;;;18.55;9.32;;;4.50;99.90;;;;;;6224377;22;20030;-81
2023/02/22 02:23:18;;;;;;;14.52;8.68;;;4.50;99.90;;;;;;6189231;23;20060;-81
2023/02/22 02:30:24;;;;;;;15.90;8.98;;;4.50;99.90;;;;;;6189525;23;20047;-81
2023/02/22 02:33:58;;;;;;;17.60;9.13;;;4.50;99.90;;;;;;6103438;23;20065;-81
2023/02/22 02:36:46;;;;;;;;;;;4.50;99.90;;;;;;6186118;23;20103;-80
2023/02/22 02:40:10;;;;;;;16.10;9.15;;;4.40;99.90;;;;;;6196753;23;20042;-81
2023/02/22 02:43:39;;;;;;;26.52;10.68;;;4.40;99.90;;;;;;6224626;23;20015;-81
2023/02/22 02:46:58;;;;;;;39.55;13.82;;;4.40;99.90;;;;;;6250595;23;20039;-81
2023/02/22 02:50:07;;;;;;;17.20;10.70;;;4.30;99.90;;;;;;6252072;22;20059;-81
2023/02/22 02:53:29;;;;;;;20.63;10.60;;;4.30;99.90;;;;;;6222452;23;20012;-81
2023/02/22 02:56:08;;;;;;;22.00;10.27;;;4.10;99.90;;;;;;6243005;23;20004;-81
2023/02/22 02:59:25;;;;;;;21.42;11.68;;;4.30;99.90;;;;;;6251211;23;20079;-81
2023/02/22 03:02:32;;;;;;;22.15;11.70;;;4.30;99.90;;;;;;6250677;22;20240;-81
2023/02/22 03:05:39;;;;;;;20.55;11.27;;;4.30;99.90;;;;;;6250186;22;20008;-81
2023/02/22 03:09:01;;;;;;;21.17;11.68;;;4.20;99.90;;;;;;6239794;23;20004;-78
2023/02/22 03:12:11;;;;;;;17.40;11.60;;;4.20;99.90;;;;;;6250592;22;20445;-81
2023/02/22 03:15:44;;;;;;;23.13;12.88;;;4.20;99.90;;;;;;6215341;23;20000;-81
2023/02/22 03:22:31;;;;;;;22.73;12.93;;;4.10;99.90;;;;;;6159030;23;20094;-81
2023/02/22 03:25:33;;;;;;;21.10;11.82;;;4.10;99.90;;;;;;6158248;23;20065;-81
2023/02/22 03:28:58;;;;;;;20.15;11.27;;;4.10;99.90;;;;;;6134310;23;20825;-81
2023/02/22 03:32:16;;;;;;;18.92;10.40;;;4.10;99.90;;;;;;6078609;23;20033;-81
2023/02/22 03:35:05;;;;;;;;;;;4.10;99.90;;;;;;6071949;23;20011;-81
2023/02/22 03:38:21;;;;;;;18.73;9.70;;;4.10;99.90;;;;;;6081056;23;19924;-81
2023/02/22 03:41:03;;;;;;;19.00;10.70;;;4.10;99.90;;;;;;6069992;23;20011;-81
2023/02/22 03:44:17;;;;;;;22.00;10.82;;;4.10;99.90;;;;;;6096960;23;20464;-81
2023/02/22 03:46:47;;;;;;;19.63;10.80;;;4.10;99.90;;;;;;6139655;23;20018;-81
2023/02/22 03:50:05;;;;;;;14.95;9.85;;;4.10;99.90;;;;;;6133324;23;20012;-81
2023/02/22 03:53:46;;;;;;;20.77;11.35;;;4.20;99.90;;;;;;6120001;23;20092;-80
2023/02/22 03:56:51;;;;;;;20.33;11.38;;;4.10;99.90;;;;;;6132672;23;20005;-81
2023/02/22 03:59:59;;;;;;;20.75;11.35;;;4.10;99.90;;;;;;6099385;23;20069;-82
2023/02/22 04:03:00;;;;;;;21.63;10.10;;;4.00;99.90;;;;;;6158643;23;20016;-81
2023/02/22 04:06:19;;;;;;;24.80;11.07;;;3.90;99.90;;;;;;6150012;23;20061;-81
2023/02/22 04:09:12;;;;;;;22.05;10.75;;;3.80;99.90;;;;;;6133554;23;20002;-82
2023/02/22 04:12:18;;;;;;;27.73;12.43;;;3.80;99.90;;;;;;6159147;23;20457;-82
2023/02/22 04:15:18;;;;;;;24.80;10.93;;;3.70;99.90;;;;;;6190391;23;20000;-81
2023/02/22 04:18:34;;;;;;;22.58;11.13;;;3.70;99.90;;;;;;6246821;23;20022;-80
2023/02/22 04:21:21;;;;;;;17.98;9.50;;;3.70;99.90;;;;;;6252981;22;20004;-81
2023/02/22 04:23:58;;;;;;;20.45;9.77;;;3.50;99.90;;;;;;6236745;22;20082;-80
2023/02/22 04:27:20;;;;;;;17.92;9.48;;;3.60;99.90;;;;;;6250116;23;20007;-81
2023/02/22 04:30:18;;;;;;;19.95;10.02;;;3.50;99.90;;;;;;6076453;23;20015;-81
2023/02/22 04:33:37;;;;;;;17.00;8.98;;;3.60;99.90;;;;;;6253266;23;20494;-81
2023/02/22 04:36:18;;;;;;;14.60;8.80;;;3.50;99.90;;;;;;6251019;23;20012;-82
2023/02/22 04:39:03;;;;;;;17.88;9.45;;;3.40;99.90;;;;;;6252187;23;20048;-81
2023/02/22 04:42:07;;;;;;;16.08;9.32;;;3.30;99.90;;;;;;6225512;23;20012;-81
2023/02/22 04:44:54;;;;;;;18.10;8.98;;;3.40;99.90;;;;;;6247536;22;20092;-79
2023/02/22 04:47:27;;;;;;;18.17;9.85;;;3.30;99.90;;;;;;6253856;23;20004;-81
2023/02/22 04:50:22;;;;;;;16.90;9.02;;;3.30;99.90;;;;;;6251176;23;20407;-81
2023/02/22 04:53:17;;;;;;;16.00;9.00;;;3.30;99.90;;;;;;6252472;23;20030;-80
2023/02/22 04:56:00;;;;;;;20.05;9.95;;;3.30;99.90;;;;;;6254223;22;20020;-82
2023/02/22 04:58:47;;;;;;;18.50;10.43;;;3.20;99.90;;;;;;6249643;22;20012;-81
2023/02/22 05:01:28;;;;;;;16.60;9.80;;;3.30;99.90;;;;;;6251456;22;20023;-80
2023/02/22 05:04:08;;;;;;;19.02;10.48;;;3.30;99.90;;;;;;6250026;22;20032;-81
2023/02/22 05:09:13;;;;;;;22.75;11.65;;;;;;;;;;6305372;22;20035;-80
2023/02/22 05:11:39;;;;;;;21.30;11.02;;;;;;;;;;6313145;22;19999;-80
2023/02/22 05:14:05;;;;;;;18.15;10.32;;;;;;;;;;6307746;22;20291;-81
2023/02/22 05:16:31;;;;;;;18.05;10.60;;;;;;;;;;6255411;22;20065;-81
2023/02/22 05:19:12;;;;;;;18.33;10.43;;;3.40;99.90;;;;;;6258196;22;20014;-80
2023/02/22 05:21:55;;;;;;;20.20;12.20;;;3.30;99.90;;;;;;6260763;22;20191;-80
2023/02/22 05:24:51;;;;;;;23.85;11.60;;;3.30;99.90;;;;;;6282094;22;20190;-80
2023/02/22 05:27:30;;;;;;;21.00;10.85;;;3.30;99.90;;;;;;6281015;22;20012;-81
2023/02/22 05:30:09;;;;;;;22.63;12.47;;;3.30;99.90;;;;;;6257593;22;20438;-80
2023/02/22 05:32:50;;;;;;;21.38;10.95;;;3.40;99.90;;;;;;6257093;22;20008;-80
2023/02/22 05:35:30;;;;;;;21.70;11.40;;;3.40;99.90;;;;;;6259287;22;20071;-81
2023/02/22 05:38:13;;;;;;;20.73;10.48;;;3.40;99.90;;;;;;6251204;22;20449;-80
2023/02/22 05:40:59;;;;;;;18.40;10.95;;;3.40;99.90;;;;;;6252716;22;20433;-81
2023/02/22 05:43:41;;;;;;;23.63;11.43;;;3.40;99.90;;;;;;6255035;22;20039;-80
2023/02/22 05:46:41;;;;;;;19.73;11.63;;;3.40;99.90;;;;;;6254971;22;20030;-82
2023/02/22 05:49:29;;;;;;;20.63;11.10;;;;;;;;;;6285252;22;20003;-81
2023/02/22 05:52:59;;;;;;;19.05;11.68;;;3.40;99.90;;;;;;6286848;22;20007;-80
2023/02/22 05:55:39;;;;;;;20.95;11.18;;;3.40;99.90;;;;;;6286987;22;20138;-81
2023/02/22 05:58:11;;;;;;;20.50;12.05;;;;;;;;;;6286702;22;20011;-80
2023/02/22 06:00:51;;;;;;;21.55;12.10;;;3.30;99.90;;;;;;6284118;22;20000;-81
2023/02/22 06:03:28;;;;;;;21.70;11.52;;;3.40;99.90;;;;;;6259684;22;20004;-81
2023/02/22 06:05:58;;;;;;;20.73;12.60;;;;;;;;;;6280965;22;20000;-80
2023/02/22 06:08:30;;;;;;;23.65;12.75;;;;;;;;;;6282932;22;20397;-80
2023/02/22 06:11:34;;;;;;;19.52;12.82;;;3.30;99.90;;;;;;6283298;22;20007;-81
2023/02/22 06:24:53;;;;;;;20.58;11.88;;;3.30;99.90;;;;;;6288958;22;20017;-82
2023/02/22 06:34:20;;;;;;;21.38;12.27;;;3.20;99.90;;;;;;6285200;22;20121;-81
2023/02/22 06:37:03;;;;;;;24.92;12.55;;;3.30;99.90;;;;;;6283970;22;20038;-81
2023/02/22 06:39:39;;;;;;;19.75;11.98;;;3.30;99.90;;;;;;6278690;22;20022;-81
2023/02/22 06:42:37;;;;;;;18.42;11.05;;;3.30;99.90;;;;;;6278923;22;20003;-81
2023/02/22 06:45:03;;;;;;;20.45;11.18;;;;;;;;;;6244800;22;20000;-81
2023/02/22 06:47:30;;;;;;;21.75;12.52;;;;;;;;;;6247480;22;20007;-81
2023/02/22 06:50:05;;;;;;;18.40;11.60;;;3.30;99.90;;;;;;6278602;22;20000;-81
2023/02/22 06:52:32;;;;;;;19.85;11.23;;;;;;;;;;6274069;22;20012;-81
2023/02/22 06:55:05;;;;;;;22.73;11.73;;;3.30;99.90;;;;;;6252794;22;20011;-80
2023/02/22 06:57:42;;;;;;;21.73;12.88;;;3.40;99.90;;;;;;6246305;22;20016;-81
2023/02/22 07:00:42;;;;;;;20.23;11.20;;;3.40;99.90;;;;;;6231112;22;20368;-81
2023/02/22 07:03:29;;;;;;;16.20;10.35;;;;;;;;;;6266070;22;20014;-81
2023/02/22 07:05:55;;;;;;;20.65;12.80;;;;;;;;;;6251873;22;20004;-82
2023/02/22 07:08:21;;;;;;;19.20;11.27;;;;;;;;;;6279005;22;20003;-81
2023/02/22 07:10:49;;;;;;;18.45;11.65;;;;;;;;;;6254646;22;20011;-81
2023/02/22 07:13:16;;;;;;;23.63;11.95;;;;;;;;;;6285199;22;20008;-81
2023/02/22 07:15:42;;;;;;;20.98;11.75;;;;;;;;;;6256654;22;20034;-80
2023/02/22 07:18:08;;;;;;;20.02;12.05;;;;;;;;;;6258529;22;20463;-80
2023/02/22 07:20:35;;;;;;;22.40;11.82;;;;;;;;;;6259279;22;20337;-81
2023/02/22 07:23:04;;;;;;;24.65;12.30;;;3.70;99.90;;;;;;6282788;22;20326;-81
2023/02/22 07:25:31;;;;;;;23.23;12.77;;;;;;;;;;6253739;22;20004;-80
2023/02/22 07:28:01;;;;;;;22.88;12.73;;;3.70;99.90;;;;;;6250553;22;20007;-82
2023/02/22 07:30:33;;;;;;;21.77;12.18;;;3.80;99.90;;;;;;6277316;22;20061;-80
2023/02/22 07:33:04;;;;;;;20.80;11.50;;;3.90;99.90;;;;;;6249712;22;20095;-81
2023/02/22 07:35:48;;;;;;;18.95;10.98;;;3.90;99.90;;;;;;6255314;22;20018;-81
2023/02/22 07:38:16;;;;;;;19.85;11.57;;;4.00;99.90;;;;;;6224717;22;20008;-80
2023/02/22 07:40:45;;;;;;;20.60;11.50;;;4.10;99.90;;;;;;6249531;22;20003;-80
2023/02/22 07:43:15;;;;;;;19.73;12.07;;;;;;;;;;6249861;22;20004;-81
2023/02/22 07:45:45;;;;;;;19.88;11.65;;;;;;;;;;6253537;22;20000;-81
2023/02/22 07:49:01;;;;;;;20.87;11.83;;;4.30;99.90;;;;;;6253648;22;20027;-81
2023/02/22 07:51:45;;;;;;;25.10;11.73;;;;;;;;;;6278311;22;20012;-80
2023/02/22 07:54:14;;;;;;;18.13;11.65;;;;;;;;;;6247066;22;20082;-80
2023/02/22 07:56:54;;;;;;;;;;;4.60;99.90;;;;;;6249782;22;20007;-80
2023/02/22 07:59:47;;;;;;;23.40;12.45;;;4.60;99.90;;;;;;6276835;22;20234;-81
2023/02/22 08:02:16;;;;;;;22.77;10.88;;;;;;;;;;6250107;22;20439;-80
2023/02/22 08:05:24;;;;;;;16.45;9.85;;;;;;;;;;6274914;22;20007;-81
2023/02/22 08:08:13;;;;;;;19.35;10.65;;;;;;;;;;6274112;22;20046;-80
2023/02/22 08:10:41;;;;;;;21.08;10.98;;;5.00;99.90;;;;;;6248442;22;20008;-80
2023/02/22 08:13:08;;;;;;;16.35;10.18;;;;;;;;;;6222945;22;20027;-81
2023/02/22 08:15:38;;;;;;;18.60;10.63;;;;;;;;;;6276104;22;20000;-81
2023/02/22 08:18:07;;;;;;;18.70;11.00;;;;;;;;;;6249680;22;20003;-81
2023/02/22 08:20:36;;;;;;;22.45;11.40;;;5.20;99.90;;;;;;6247351;22;20004;-80
2023/02/22 08:23:03;;;;;;;21.35;11.27;;;;;;;;;;6248129;22;20032;-81
2023/02/22 08:25:32;;;;;;;17.80;10.60;;;;;;;;;;6248061;22;20003;-80
2023/02/22 08:28:01;;;;;;;20.55;10.93;;;;;;;;;;6250030;22;20381;-80
2023/02/22 08:30:29;;;;;;;22.90;10.38;;;;;;;;;;6278173;22;20334;-81
2023/02/22 08:32:56;;;;;;;18.30;10.65;;;;;;;;;;6278758;22;20007;-81
2023/02/22 08:35:22;;;;;;;17.63;10.52;;;;;;;;;;6250792;22;20015;-81
2023/02/22 08:37:51;;;;;;;18.60;10.68;;;;;;;;;;6251544;22;20430;-80
2023/02/22 08:40:20;;;;;;;18.08;10.45;;;;;;;;;;6249712;22;20026;-80
2023/02/22 08:42:48;;;;;;;19.25;9.73;;;;;;;;;;6279224;22;20019;-80
2023/02/22 08:45:30;;;;;;;18.08;10.43;;;6.00;99.90;;;;;;6281516;22;20463;-81
2023/02/22 08:48:04;;;;;;;15.82;10.10;;;6.10;99.90;;;;;;6254987;22;20017;-80
2023/02/22 08:50:56;;;;;;;18.38;9.60;;;6.20;99.90;;;;;;6252933;22;20008;-81
2023/02/22 08:53:31;;;;;;;21.35;10.80;;;6.20;99.90;;;;;;6278905;22;20022;-80
2023/02/22 08:56:15;;;;;;;20.35;9.50;;;6.30;99.90;;;;;;6242023;22;20027;-80
2023/02/22 08:58:49;;;;;;;20.42;10.88;;;6.40;99.90;;;;;;6279832;22;20035;-81
2023/02/22 09:01:57;;;;;;;18.45;10.32;;;5.60;99.90;;;;;;6282308;22;20311;-81
2023/02/22 09:04:51;;;;;;;20.58;10.68;;;6.50;99.90;;;;;;6279143;22;20176;-81
2023/02/22 09:07:48;;;;;;;19.95;10.77;;;6.60;99.90;;;;;;6248511;22;20010;-81
2023/02/22 09:10:40;;;;;;;21.80;10.38;;;6.80;99.90;;;;;;6241781;22;20070;-81
2023/02/22 09:13:35;;;;;;;17.88;9.95;;;6.90;99.90;;;;;;6268354;22;20045;-80
2023/02/22 09:16:08;;;;;;;18.58;10.10;;;;;;;;;;6275803;22;20011;-80
2023/02/22 09:18:50;;;;;;;17.75;11.50;;;7.10;99.90;;;;;;6247128;22;20291;-80
2023/02/22 09:21:28;;;;;;;20.25;10.70;;;7.30;99.90;;;;;;6249514;22;20014;-80
2023/02/22 09:24:07;;;;;;;21.38;10.40;;;7.40;99.90;;;;;;6275929;22;20072;-80
2023/02/22 09:26:54;;;;;;;18.27;10.35;;;7.60;99.90;;;;;;6277664;22;20003;-81
2023/02/22 09:29:47;;;;;;;21.23;11.35;;;7.80;99.90;;;;;;6200723;22;20030;-81
2023/02/22 09:32:31;;;;;;;20.88;10.82;;;8.00;99.90;;;;;;6245204;22;20007;-81
2023/02/22 09:35:11;;;;;;;22.90;11.10;;;8.10;99.90;;;;;;6251591;22;20008;-80
2023/02/22 09:38:07;;;;;;;18.23;10.35;;;8.30;99.90;;;;;;6279083;22;20448;-81
2023/02/22 09:41:13;;;;;;;18.60;10.27;;;8.40;99.90;;;;;;6279107;22;20004;-81
2023/02/22 09:44:35;;;;;;;20.35;10.95;;;8.60;99.90;;;;;;6279679;22;20000;-81
2023/02/22 09:48:26;;;;;;;20.00;11.10;;;8.70;99.90;;;;;;6261023;22;20019;-81
2023/02/22 09:52:03;;;;;;;20.45;11.32;;;8.80;99.90;;;;;;6225759;22;20406;-80
2023/02/22 09:55:18;;;;;;;19.33;12.20;;;8.90;99.90;;;;;;6158295;23;20009;-81
2023/02/22 09:59:04;;;;;;;21.13;11.68;;;9.10;99.90;;;;;;6138384;23;20013;-81
2023/02/22 10:02:44;;;;;;;27.85;13.88;;;7.90;99.90;;;;;;6036209;23;20008;-81
2023/02/22 10:06:16;;;;;;;27.70;13.57;;;9.40;99.90;;;;;;6014759;23;20510;-80
2023/02/22 10:09:31;;;;;;;27.25;14.13;;;9.60;99.90;;;;;;6082434;23;20038;-81
2023/02/22 10:12:46;;;;;;;25.42;14.18;;;9.80;99.90;;;;;;6096463;23;20348;-81
2023/02/22 10:15:41;;;;;;;24.42;13.68;;;10.00;99.90;;;;;;6059104;23;20014;-81
2023/02/22 10:18:49;;;;;;;24.85;14.13;;;10.10;99.90;;;;;;6076182;23;20010;-80
2023/02/22 10:21:50;;;;;;;26.42;14.95;;;10.20;99.90;;;;;;6095040;23;20665;-80
2023/02/22 10:24:40;;;;;;;27.48;15.32;;;;;;;;;;6097789;22;20041;-81
2023/02/22 10:28:05;;;;;;;23.83;14.23;;;10.30;99.90;;;;;;6279567;22;20054;-81
2023/02/22 10:31:32;;;;;;;29.60;14.73;;;10.50;99.90;;;;;;6277636;22;20039;-81
2023/02/22 10:35:06;;;;;;;26.60;15.35;;;10.50;99.90;;;;;;6273680;22;20061;-81
2023/02/22 10:37:38;;;;;;;25.50;15.07;;;10.60;99.90;;;;;;6267572;22;20465;-80
2023/02/22 10:40:22;;;;;;;23.70;13.95;;;10.70;99.90;;;;;;6252998;22;20008;-82
2023/02/22 10:42:51;;;;;;;26.25;15.35;;;;;;;;;;6253561;22;20010;-81
2023/02/22 10:46:06;;;;;;;28.73;15.35;;;10.80;99.90;;;;;;6253733;22;20469;-80
2023/02/22 10:53:22;;;;;;;25.20;14.90;;;11.20;99.90;;;;;;6040592;23;20027;-82
2023/02/22 10:56:23;;;;;;;23.35;14.30;;;11.40;99.90;;;;;;6063182;23;20014;-81
2023/02/22 10:59:01;;;;;;;24.10;14.80;;;11.30;99.90;;;;;;6115668;23;20041;-81
2023/02/22 11:02:26;;;;;;;26.90;15.18;;;11.20;99.90;;;;;;6160586;22;20023;-82
2023/02/22 11:06:01;;;;;;;25.60;14.73;;;11.30;99.90;;;;;;6274881;22;20055;-81
2023/02/22 11:08:55;;;;;;;25.08;13.85;;;;;;;;;;6139876;23;20005;-80
2023/02/22 11:12:15;;;;;;;25.88;14.13;;;;;;;;;;6187831;23;20008;-81
2023/02/22 11:14:41;;;;;;;24.23;13.98;;;;;;;;;;6159630;23;20013;-81
2023/02/22 11:17:51;;;;;;;26.02;14.77;;;;;;;;;;6249974;22;20000;-82
2023/02/22 11:21:04;;;;;;;23.90;14.37;;;;;;;;;;6290789;22;20421;-82
2023/02/22 11:24:30;;;;;;;26.88;14.10;;;11.90;99.90;;;;;;6285486;22;20251;-82
2023/02/22 11:34:43;;;;;;;24.88;13.93;;;12.00;99.90;;;;;;6146095;23;20033;-81
2023/02/22 11:37:37;;;;;;;25.85;13.90;;;;;;;;;;6145458;23;20002;-81
2023/02/22 11:40:40;;;;;;;25.58;15.27;;;;;;;;;;6207537;23;20017;-81
2023/02/22 11:44:08;;;;;;;23.67;15.10;;;11.90;99.90;;;;;;6176703;23;20005;-81
2023/02/22 11:47:30;;;;;;;26.52;16.15;;;12.00;99.90;;;;;;6140369;23;19994;-81
2023/02/22 11:50:48;;;;;;;24.98;15.65;;;11.10;99.90;;;;;;6146882;23;19997;-82
2023/02/22 11:53:43;;;;;;;22.92;15.30;;;12.00;99.90;;;;;;6213724;23;20049;-82
2023/02/22 11:56:47;;;;;;;26.65;16.15;;;12.00;99.90;;;;;;6206444;23;20004;-81
2023/02/22 11:59:27;;;;;;;29.52;15.73;;;12.00;99.90;;;;;;6225211;23;20031;-80
2023/02/22 12:02:01;;;;;;;26.50;16.33;;;12.10;99.90;;;;;;6259752;22;20086;-81
2023/02/22 12:04:43;;;;;;;25.55;16.05;;;12.20;99.90;;;;;;6272696;22;20037;-81
2023/02/22 12:07:34;;;;;;;26.67;15.95;;;12.10;99.90;;;;;;6295883;22;20003;-81
2023/02/22 12:10:45;;;;;;;24.90;16.77;;;12.20;99.90;;;;;;6260125;22;20015;-80
2023/02/22 12:13:35;;;;;;;26.05;15.77;;;12.20;99.90;;;;;;6227718;22;20244;-81
2023/02/22 12:16:24;;;;;;;28.67;17.75;;;12.10;99.90;;;;;;6265197;22;20000;-81
2023/02/22 12:19:12;;;;;;;23.88;15.35;;;12.00;99.90;;;;;;6259211;22;20106;-80
2023/02/22 12:21:50;;;;;;;25.75;16.75;;;12.10;99.90;;;;;;6248636;22;20083;-82
2023/02/22 12:28:58;;;;;;;30.08;17.77;;;12.20;99.90;;;;;;6172801;23;20052;-81
2023/02/22 12:36:12;;;;;;;30.08;17.73;;;12.40;99.90;;;;;;6174206;23;20036;-82
2023/02/22 12:43:15;;;;;;;28.52;16.67;;;11.70;99.90;;;;;;6001620;23;20015;-82
2023/02/22 12:46:46;;;;;;;30.20;17.15;;;12.70;99.90;;;;;;6029910;23;20017;-82
2023/02/22 13:10:37;;;;;;;26.92;17.00;;;13.30;99.90;;;;;;6029269;23;20027;-80
2023/02/22 13:31:00;;;;;;;25.85;17.35;;;14.40;99.90;;;;;;6297961;22;20031;-80
2023/02/22 13:34:18;;;;;;;31.33;18.03;;;13.10;99.90;;;;;;6268686;22;20420;-81
2023/02/22 13:37:11;;;;;;;26.30;16.98;;;13.00;99.90;;;;;;6293537;22;20093;-81
2023/02/22 13:40:19;;;;;;;33.60;18.30;;;11.80;99.90;;;;;;6272563;22;20131;-81
2023/02/22 13:43:25;;;;;;;32.20;17.20;;;13.10;99.90;;;;;;6226613;22;20022;-81
2023/02/22 13:46:51;;;;;;;27.45;17.63;;;13.20;99.90;;;;;;6264233;22;20032;-81
2023/02/22 13:50:30;;;;;;;26.35;16.80;;;13.20;99.90;;;;;;6294705;22;19988;-82
2023/02/22 13:53:43;;;;;;;27.60;16.77;;;13.10;99.90;;;;;;6167104;22;20023;-81
2023/02/22 13:57:01;;;;;;;26.50;16.52;;;12.70;99.90;;;;;;6246240;22;20008;-82
2023/02/22 14:00:11;;;;;;;28.17;17.33;;;13.10;99.90;;;;;;6270178;22;20019;-81
2023/02/22 14:03:23;;;;;;;29.67;18.17;;;13.10;99.90;;;;;;6254471;22;20003;-81
2023/02/22 14:06:45;;;;;;;28.95;18.83;;;12.90;99.90;;;;;;6297382;22;20023;-82
2023/02/22 14:09:44;;;;;;;30.30;17.25;;;11.80;99.90;;;;;;6244921;22;20004;-82
2023/02/22 14:13:15;;;;;;;31.42;19.75;;;13.00;99.90;;;;;;6258357;22;20007;-82
2023/02/22 14:16:32;;;;;;;29.30;18.88;;;12.90;99.90;;;;;;6295319;22;20003;-81
2023/02/22 14:19:41;;;;;;;29.20;17.42;;;11.30;99.90;;;;;;6242063;22;20023;-81
2023/02/22 14:22:43;;;;;;;29.42;18.60;;;12.90;99.90;;;;;;6245259;22;20023;-81
2023/02/22 14:26:00;;;;;;;25.58;17.38;;;12.90;99.90;;;;;;6255425;22;20008;-82
2023/02/22 14:29:15;;;;;;;26.27;17.60;;;12.90;99.90;;;;;;6273740;22;20068;-82
2023/02/22 14:32:29;;;;;;;27.20;17.02;;;12.90;99.90;;;;;;6294906;22;20307;-82
2023/02/22 14:35:39;;;;;;;24.70;15.98;;;13.00;99.90;;;;;;6240123;22;20008;-81
2023/02/22 14:41:41;;;;;;;29.70;16.75;;;13.00;99.90;;;;;;6291772;22;20011;-82
2023/02/22 14:44:32;;;;;;;28.58;17.70;;;13.00;99.90;;;;;;6261266;22;20003;-81
2023/02/22 14:47:31;;;;;;;28.40;17.45;;;13.00;99.90;;;;;;6264715;22;20387;-82
2023/02/22 14:50:26;;;;;;;27.83;17.55;;;12.90;99.90;;;;;;6288754;22;20026;-81
2023/02/22 14:53:47;;;;;;;28.52;18.65;;;14.00;99.90;;;;;;6266406;22;20003;-82
2023/02/22 14:56:39;;;;;;;23.27;16.52;;;12.80;99.90;;;;;;6249505;22;20014;-80
2023/02/22 14:59:29;;;;;;;25.90;17.70;;;12.70;99.90;;;;;;6292935;22;20003;-81
2023/02/22 15:02:43;;;;;;;28.95;18.20;;;12.60;99.90;;;;;;6290375;22;19999;-80
2023/02/22 15:06:02;;;;;;;27.35;16.65;;;12.70;99.90;;;;;;6294432;22;20004;-80
2023/02/22 15:09:36;;;;;;;24.25;16.15;;;12.20;99.90;;;;;;6283310;22;20027;-81
2023/02/22 15:12:46;;;;;;;30.17;18.02;;;12.60;99.90;;;;;;6293504;22;20004;-81
2023/02/22 15:15:51;;;;;;;28.65;17.20;;;12.60;99.90;;;;;;6293293;22;20003;-81
2023/02/22 15:18:55;;;;;;;27.65;17.50;;;12.60;99.90;;;;;;6262297;22;20004;-81
2023/02/22 15:21:59;;;;;;;25.50;16.65;;;10.60;99.90;;;;;;6268494;22;19987;-81
2023/02/22 15:24:30;;;;;;;26.95;16.95;;;12.50;99.90;;;;;;6292478;22;20003;-81
2023/02/22 15:27:18;;;;;;;;;;;12.50;99.90;;;;;;6265826;22;19999;-81
2023/02/22 15:30:03;;;;;;;25.95;16.73;;;12.50;99.90;;;;;;6292604;22;20436;-81
2023/02/22 15:33:13;;;;;;;27.83;17.35;;;12.50;99.90;;;;;;6295045;22;20004;-82
2023/02/22 15:35:52;;;;;;;28.60;18.17;;;12.50;99.90;;;;;;6262730;22;20003;-82
2023/02/22 15:38:32;;;;;;;30.33;18.30;;;10.50;99.90;;;;;;6267681;22;20010;-81
2023/02/22 15:41:26;;;;;;;31.88;19.25;;;12.40;99.90;;;;;;6267704;22;20027;-82
2023/02/22 15:44:10;;;;;;;31.35;19.27;;;12.40;99.90;;;;;;6265138;22;20031;-82
2023/02/22 15:46:55;;;;;;;31.17;18.27;;;12.50;99.90;;;;;;6293074;22;20016;-80
2023/02/22 15:49:35;;;;;;;29.85;19.13;;;12.40;99.90;;;;;;6292272;22;20011;-81
2023/02/22 15:52:20;;;;;;;29.83;18.65;;;12.30;99.90;;;;;;6266008;22;20006;-81
2023/02/22 15:54:57;;;;;;;30.45;19.63;;;11.10;99.90;;;;;;6244313;22;20007;-82
2023/02/22 15:57:45;;;;;;;30.08;19.02;;;12.30;99.90;;;;;;6239545;22;20348;-81
2023/02/22 16:00:47;;;;;;;31.45;19.38;;;12.20;99.90;;;;;;6237010;22;20007;-81
2023/02/22 16:03:32;;;;;;;29.88;18.65;;;12.30;99.90;;;;;;6291886;22;20004;-81
2023/02/22 16:06:29;;;;;;;33.63;19.65;;;12.20;99.90;;;;;;6291693;22;19999;-81
2023/02/22 16:09:29;;;;;;;29.38;18.33;;;12.20;99.90;;;;;;6293258;22;20003;-81
2023/02/22 16:12:25;;;;;;;29.83;18.23;;;12.20;99.90;;;;;;6266083;22;20004;-82
2023/02/22 16:15:03;;;;;;;32.47;18.58;;;12.10;99.90;;;;;;6293118;22;20031;-81
2023/02/22 16:17:40;;;;;;;36.03;18.75;;;12.10;99.90;;;;;;6272404;22;20453;-80
2023/02/22 16:20:16;;;;;;;33.65;17.67;;;12.20;99.90;;;;;;6294226;22;20479;-80
2023/02/22 16:22:48;;;;;;;31.40;18.95;;;12.10;99.90;;;;;;6295897;22;20003;-80
2023/02/22 16:25:27;;;;;;;28.40;17.60;;;12.10;99.90;;;;;;6301086;22;20087;-80
2023/02/22 16:28:04;;;;;;;33.25;18.48;;;12.10;99.90;;;;;;6261872;22;20010;-80
2023/02/22 16:30:41;;;;;;;25.20;16.38;;;12.10;99.90;;;;;;6258633;22;20085;-80
2023/02/22 16:33:15;;;;;;;27.35;18.25;;;12.10;99.90;;;;;;6262722;22;20051;-80
2023/02/22 16:35:50;;;;;;;27.67;17.52;;;12.00;99.90;;;;;;6275639;22;20011;-80
2023/02/22 16:38:17;;;;;;;24.88;16.40;;;12.90;99.90;;;;;;6273925;22;20008;-80
2023/02/22 16:40:57;;;;;;;27.95;16.42;;;12.00;99.90;;;;;;6280499;22;20005;-80
2023/02/22 16:43:32;;;;;;;24.80;16.58;;;12.00;99.90;;;;;;6289956;22;20014;-81
2023/02/22 16:46:02;;;;;;;27.67;17.40;;;12.00;99.90;;;;;;6257924;22;20015;-80
2023/02/22 16:48:31;;;;;;;30.95;17.38;;;12.00;99.90;;;;;;6258390;22;20063;-81
2023/02/22 16:51:15;;;;;;;26.17;15.82;;;11.90;99.90;;;;;;6260763;22;19999;-81